createdAt,value
2018-12-25T00:01:05.147Z,6.20
2018-12-25T00:03:32.613Z,6.20
2018-12-25T00:06:00.154Z,6.20
2018-12-25T00:08:27.684Z,6.20
2018-12-25T00:10:55.179Z,6.10
2018-12-25T00:13:22.625Z,6.10
2018-12-25T00:15:50.093Z,6.10
2018-12-25T00:18:18.395Z,6.10
2018-12-25T00:20:47.373Z,6.10
2018-12-25T00:23:14.831Z,6.10
2018-12-25T00:25:42.299Z,6.20
2018-12-25T00:28:09.763Z,6.10
2018-12-25T00:30:37.231Z,6.10
2018-12-25T00:33:04.799Z,6.00
2018-12-25T00:35:32.271Z,6.10
2018-12-25T00:37:59.742Z,6.10
2018-12-25T00:40:28.002Z,6.20
2018-12-25T00:42:55.465Z,6.10
2018-12-25T00:45:22.935Z,6.20
2018-12-25T00:47:50.493Z,6.20
2018-12-25T00:50:17.978Z,6.20
2018-12-25T00:52:46.235Z,6.30
2018-12-25T00:55:13.699Z,6.20
2018-12-25T00:57:41.165Z,6.30
2018-12-25T01:00:08.634Z,6.40
2018-12-25T01:02:36.189Z,6.50
2018-12-25T01:05:04.765Z,6.60
2018-12-25T01:07:32.232Z,6.60
2018-12-25T01:09:59.704Z,6.70
2018-12-25T01:12:27.970Z,6.80
2018-12-25T01:14:55.531Z,6.80
2018-12-25T01:17:23.893Z,6.80
2018-12-25T01:19:51.356Z,6.70
2018-12-25T01:22:18.808Z,6.90
2018-12-25T01:24:46.522Z,6.90
2018-12-25T01:27:13.992Z,6.90
2018-12-25T01:29:42.226Z,6.90
2018-12-25T01:32:09.708Z,6.90
2018-12-25T01:34:37.173Z,6.90
2018-12-25T01:37:04.646Z,6.90
2018-12-25T01:39:32.095Z,6.90
2018-12-25T01:41:59.685Z,6.90
2018-12-25T01:44:27.943Z,6.90
2018-12-25T01:46:55.507Z,6.90
2018-12-25T01:49:31.587Z,6.90
2018-12-25T01:51:51.354Z,6.80
2018-12-25T01:54:20.357Z,6.80
2018-12-25T01:56:47.920Z,6.80
2018-12-25T01:59:15.386Z,6.80
2018-12-25T02:01:42.848Z,6.80
2018-12-25T02:04:10.302Z,6.90
2018-12-25T02:06:37.782Z,6.90
2018-12-25T02:09:06.033Z,6.90
2018-12-25T02:11:33.597Z,6.90
2018-12-25T02:14:01.161Z,6.90
2018-12-25T02:16:28.622Z,6.80
2018-12-25T02:18:56.080Z,6.70
2018-12-25T02:21:23.540Z,6.70
2018-12-25T02:23:51.001Z,6.70
2018-12-25T02:26:18.457Z,6.50
2018-12-25T02:28:46.028Z,6.60
2018-12-25T02:31:13.502Z,6.60
2018-12-25T02:33:41.024Z,6.60
2018-12-25T02:36:08.487Z,6.60
2018-12-25T02:38:35.941Z,6.60
2018-12-25T02:41:03.671Z,6.70
2018-12-25T02:43:31.181Z,6.70
2018-12-25T02:45:58.734Z,6.70
2018-12-25T02:48:26.251Z,6.60
2018-12-25T02:50:53.711Z,6.60
2018-12-25T02:53:21.175Z,6.60
2018-12-25T02:55:48.658Z,6.60
2018-12-25T02:58:16.949Z,6.60
2018-12-25T03:00:46.533Z,6.50
2018-12-25T03:03:11.957Z,6.50
2018-12-25T03:05:40.226Z,6.50
2018-12-25T03:08:07.785Z,6.50
2018-12-25T03:10:35.278Z,6.60
2018-12-25T03:13:04.417Z,6.60
2018-12-25T03:15:31.888Z,6.50
2018-12-25T03:17:59.377Z,6.40
2018-12-25T03:20:26.926Z,6.30
2018-12-25T03:22:54.378Z,6.30
2018-12-25T03:25:21.852Z,6.20
2018-12-25T03:27:49.317Z,6.20
2018-12-25T03:30:16.788Z,6.10
2018-12-25T03:32:44.254Z,6.10
2018-12-25T03:35:11.719Z,6.00
2018-12-25T03:37:39.194Z,6.00
2018-12-25T03:40:07.462Z,6.00
2018-12-25T03:42:35.741Z,6.00
2018-12-25T03:45:04.738Z,6.00
2018-12-25T03:47:32.965Z,6.00
2018-12-25T03:50:10.029Z,6.00
2018-12-25T03:52:27.931Z,6.00
2018-12-25T03:54:55.482Z,6.00
2018-12-25T03:57:22.943Z,6.00
2018-12-25T03:59:50.421Z,6.00
2018-12-25T04:02:17.988Z,6.00
2018-12-25T04:04:46.956Z,6.00
2018-12-25T04:07:14.441Z,6.00
2018-12-25T04:09:42.007Z,6.00
2018-12-25T04:12:10.301Z,6.10
2018-12-25T04:14:37.751Z,6.00
2018-12-25T04:17:05.213Z,6.10
2018-12-25T04:19:32.678Z,6.10
2018-12-25T04:22:00.254Z,6.10
2018-12-25T04:24:28.489Z,6.10
2018-12-25T04:26:55.981Z,6.10
2018-12-25T04:29:23.550Z,6.00
2018-12-25T04:31:51.099Z,6.00
2018-12-25T04:34:18.670Z,6.00
2018-12-25T04:36:46.137Z,5.90
2018-12-25T04:39:13.616Z,5.90
2018-12-25T04:41:41.861Z,5.90
2018-12-25T04:44:09.327Z,5.80
2018-12-25T04:46:36.795Z,5.80
2018-12-25T04:49:04.353Z,5.80
2018-12-25T04:51:31.790Z,5.80
2018-12-25T04:53:59.277Z,5.90
2018-12-25T04:56:26.732Z,5.80
2018-12-25T04:58:54.186Z,5.90
2018-12-25T05:01:21.810Z,5.90
2018-12-25T05:03:50.062Z,5.90
2018-12-25T05:06:17.612Z,5.90
2018-12-25T05:08:45.452Z,5.80
2018-12-25T05:11:12.911Z,5.80
2018-12-25T05:13:40.374Z,5.90
2018-12-25T05:16:07.829Z,5.90
2018-12-25T05:18:35.285Z,5.90
2018-12-25T05:21:02.795Z,5.80
2018-12-25T05:23:30.252Z,5.80
2018-12-25T05:25:57.732Z,5.90
2018-12-25T05:28:25.187Z,6.00
2018-12-25T05:30:52.748Z,5.90
2018-12-25T05:33:20.222Z,5.90
2018-12-25T05:35:47.700Z,5.90
2018-12-25T05:38:16.000Z,5.90
2018-12-25T05:40:43.455Z,5.90
2018-12-25T05:43:10.930Z,5.90
2018-12-25T05:45:38.382Z,5.90
2018-12-25T05:48:05.841Z,5.90
2018-12-25T05:50:33.288Z,6.00
2018-12-25T05:53:01.638Z,6.00
2018-12-25T05:55:29.086Z,6.00
2018-12-25T05:57:56.557Z,6.00
2018-12-25T06:00:24.025Z,6.00
2018-12-25T06:02:51.480Z,6.00
2018-12-25T06:05:18.937Z,6.00
2018-12-25T06:07:46.403Z,6.00
2018-12-25T06:10:13.872Z,6.00
2018-12-25T06:12:41.437Z,6.00
2018-12-25T06:15:08.906Z,6.00
2018-12-25T06:17:36.466Z,6.00
2018-12-25T06:20:03.935Z,6.00
2018-12-25T06:22:32.185Z,6.00
2018-12-25T06:24:59.749Z,6.00
2018-12-25T06:27:27.331Z,6.00
2018-12-25T06:29:54.789Z,6.00
2018-12-25T06:32:22.328Z,6.00
2018-12-25T06:34:50.496Z,6.00
2018-12-25T06:37:17.961Z,6.00
2018-12-25T06:39:45.417Z,6.00
2018-12-25T06:42:12.909Z,5.90
2018-12-25T06:44:40.415Z,5.90
2018-12-25T06:47:08.658Z,6.00
2018-12-25T06:49:36.231Z,6.00
2018-12-25T06:52:03.926Z,6.00
2018-12-25T06:54:32.147Z,6.00
2018-12-25T06:56:59.661Z,6.00
2018-12-25T06:59:27.896Z,5.90
2018-12-25T07:01:55.369Z,5.90
2018-12-25T07:04:22.834Z,5.90
2018-12-25T07:06:50.649Z,5.90
2018-12-25T07:09:17.819Z,5.90
2018-12-25T07:11:45.337Z,5.90
2018-12-25T07:14:12.792Z,5.80
2018-12-25T07:16:40.344Z,5.80
2018-12-25T07:19:07.918Z,5.80
2018-12-25T07:21:35.478Z,5.80
2018-12-25T07:24:03.978Z,5.70
2018-12-25T07:26:31.425Z,5.70
2018-12-25T07:28:59.002Z,5.60
2018-12-25T07:31:26.558Z,5.60
2018-12-25T07:33:54.019Z,5.60
2018-12-25T07:36:21.485Z,5.60
2018-12-25T07:38:48.950Z,5.50
2018-12-25T07:41:17.938Z,5.40
2018-12-25T07:43:45.400Z,5.40
2018-12-25T07:46:12.874Z,5.40
2018-12-25T07:48:40.448Z,5.40
2018-12-25T07:51:08.007Z,5.50
2018-12-25T07:53:35.479Z,5.50
2018-12-25T07:56:04.701Z,5.50
2018-12-25T07:58:32.172Z,5.50
2018-12-25T08:00:59.643Z,5.50
2018-12-25T08:03:27.140Z,5.50
2018-12-25T08:05:55.423Z,5.40
2018-12-25T08:08:22.883Z,5.40
2018-12-25T08:10:50.365Z,5.50
2018-12-25T08:13:19.158Z,5.50
2018-12-25T08:15:46.754Z,5.50
2018-12-25T08:18:14.273Z,5.50
2018-12-25T08:20:43.263Z,5.50
2018-12-25T08:23:12.257Z,5.60
2018-12-25T08:25:39.729Z,5.60
2018-12-25T08:28:07.187Z,5.60
2018-12-25T08:30:34.649Z,5.70
2018-12-25T08:33:02.119Z,5.70
2018-12-25T08:35:29.664Z,5.70
2018-12-25T08:37:57.230Z,5.70
2018-12-25T08:40:24.694Z,5.80
2018-12-25T08:42:52.165Z,5.80
2018-12-25T08:45:19.626Z,5.90
2018-12-25T08:47:47.084Z,5.90
2018-12-25T08:50:14.549Z,5.90
2018-12-25T08:52:42.009Z,5.90
2018-12-25T08:55:09.480Z,5.90
2018-12-25T08:57:37.026Z,6.00
2018-12-25T09:00:04.646Z,6.00
2018-12-25T09:02:32.121Z,6.10
2018-12-25T09:04:59.612Z,6.10
2018-12-25T09:07:27.123Z,6.00
2018-12-25T09:09:55.362Z,6.00
2018-12-25T09:12:22.825Z,6.00
2018-12-25T09:14:50.280Z,6.10
2018-12-25T09:17:17.752Z,6.10
2018-12-25T09:19:45.982Z,6.10
2018-12-25T09:22:13.440Z,6.10
2018-12-25T09:24:40.952Z,6.10
2018-12-25T09:27:08.525Z,6.10
2018-12-25T09:29:36.769Z,6.10
2018-12-25T09:32:04.271Z,6.10
2018-12-25T09:34:31.724Z,6.10
2018-12-25T09:37:00.702Z,6.00
2018-12-25T09:39:28.163Z,6.00
2018-12-25T09:41:55.628Z,6.10
2018-12-25T09:44:23.198Z,6.10
2018-12-25T09:46:50.561Z,6.20
2018-12-25T09:49:18.095Z,6.10
2018-12-25T09:51:45.605Z,6.20
2018-12-25T09:54:13.054Z,6.20
2018-12-25T09:56:40.525Z,6.30
2018-12-25T09:59:07.995Z,6.30
2018-12-25T10:01:35.511Z,6.40
2018-12-25T10:04:04.429Z,6.40
2018-12-25T10:06:31.911Z,6.40
2018-12-25T10:08:59.369Z,6.50
2018-12-25T10:11:26.819Z,6.60
2018-12-25T10:13:54.384Z,6.60
2018-12-25T10:16:21.947Z,6.60
2018-12-25T10:18:49.420Z,6.70
2018-12-25T10:21:16.977Z,6.80
2018-12-25T10:23:45.313Z,7.20
2018-12-25T10:26:12.870Z,7.20
2018-12-25T10:28:40.297Z,7.30
2018-12-25T10:31:07.777Z,7.20
2018-12-25T10:33:36.030Z,7.10
2018-12-25T10:36:04.394Z,7.10
2018-12-25T10:38:31.977Z,7.10
2018-12-25T10:40:59.441Z,7.10
2018-12-25T10:43:27.005Z,7.10
2018-12-25T10:45:54.470Z,7.10
2018-12-25T10:48:22.012Z,7.10
2018-12-25T10:50:50.403Z,7.10
2018-12-25T10:53:18.644Z,7.00
2018-12-25T10:55:46.143Z,7.00
2018-12-25T10:58:13.654Z,7.10
2018-12-25T11:00:41.213Z,7.30
2018-12-25T11:03:09.456Z,7.40
2018-12-25T11:05:37.653Z,7.40
2018-12-25T11:08:05.189Z,7.40
2018-12-25T11:10:32.723Z,7.50
2018-12-25T11:13:00.955Z,7.60
2018-12-25T11:15:28.493Z,7.60
2018-12-25T11:17:56.801Z,7.60
2018-12-25T11:20:25.029Z,7.70
2018-12-25T11:22:53.252Z,7.70
2018-12-25T11:25:22.232Z,7.70
2018-12-25T11:27:49.706Z,7.70
2018-12-25T11:30:17.291Z,7.70
2018-12-25T11:32:44.822Z,7.60
2018-12-25T11:35:12.297Z,7.60
2018-12-25T11:37:39.765Z,7.70
2018-12-25T11:40:07.301Z,7.60
2018-12-25T11:42:34.793Z,7.60
2018-12-25T11:45:02.576Z,7.60
2018-12-25T11:47:30.801Z,7.70
2018-12-25T11:49:58.269Z,7.60
2018-12-25T11:52:28.491Z,7.70
2018-12-25T11:54:53.203Z,7.70
2018-12-25T11:57:20.678Z,7.70
2018-12-25T11:59:48.299Z,7.80
2018-12-25T12:02:17.227Z,7.80
2018-12-25T12:04:44.073Z,7.80
2018-12-25T12:07:11.651Z,7.80
2018-12-25T12:09:39.118Z,7.80
2018-12-25T12:12:06.577Z,7.80
2018-12-25T12:14:34.071Z,7.80
2018-12-25T12:17:02.334Z,7.80
2018-12-25T12:19:31.213Z,7.80
2018-12-25T12:21:58.672Z,7.80
2018-12-25T12:24:26.134Z,7.80
2018-12-25T12:26:53.601Z,7.70
2018-12-25T12:29:21.064Z,7.70
2018-12-25T12:31:48.513Z,7.70
2018-12-25T12:34:16.054Z,7.60
2018-12-25T12:36:43.520Z,7.60
2018-12-25T12:39:10.969Z,7.70
2018-12-25T12:41:38.416Z,7.70
2018-12-25T12:44:05.885Z,7.60
2018-12-25T12:46:33.379Z,7.60
2018-12-25T12:49:00.891Z,7.60
2018-12-25T12:51:28.395Z,7.70
2018-12-25T12:53:55.871Z,7.60
2018-12-25T12:56:23.433Z,7.60
2018-12-25T12:58:50.895Z,7.60
2018-12-25T13:01:18.363Z,7.50
2018-12-25T13:03:46.680Z,7.40
2018-12-25T13:06:14.900Z,7.40
2018-12-25T13:08:42.389Z,7.40
2018-12-25T13:11:09.877Z,7.40
2018-12-25T13:13:38.109Z,7.40
2018-12-25T13:16:05.599Z,7.40
2018-12-25T13:18:33.075Z,7.30
2018-12-25T13:21:01.342Z,7.40
2018-12-25T13:23:28.786Z,7.40
2018-12-25T13:25:56.235Z,7.40
2018-12-25T13:28:23.822Z,7.40
2018-12-25T13:30:51.290Z,7.30
2018-12-25T13:33:18.856Z,7.30
2018-12-25T13:35:46.315Z,7.20
2018-12-25T13:38:13.867Z,7.30
2018-12-25T13:40:41.437Z,7.30
2018-12-25T13:43:08.888Z,7.30
2018-12-25T13:45:36.369Z,7.30
2018-12-25T13:48:03.929Z,7.30
2018-12-25T13:50:32.164Z,7.20
2018-12-25T13:53:02.872Z,7.20
2018-12-25T13:55:27.910Z,7.20
2018-12-25T13:57:55.377Z,7.10
2018-12-25T14:00:22.871Z,7.10
2018-12-25T14:02:50.354Z,7.10
2018-12-25T14:05:18.589Z,7.00
2018-12-25T14:07:46.107Z,7.00
2018-12-25T14:10:14.337Z,6.90
2018-12-25T14:12:41.798Z,6.90
2018-12-25T14:15:10.684Z,6.90
2018-12-25T14:17:38.149Z,6.90
2018-12-25T14:20:06.042Z,7.00
2018-12-25T14:22:33.497Z,7.00
2018-12-25T14:25:00.959Z,7.00
2018-12-25T14:27:28.409Z,7.00
2018-12-25T14:29:55.897Z,7.00
2018-12-25T14:32:23.351Z,7.00
2018-12-25T14:34:50.892Z,7.00
2018-12-25T14:37:19.083Z,6.90
2018-12-25T14:39:46.557Z,7.00
2018-12-25T14:42:14.829Z,6.90
2018-12-25T14:44:42.294Z,6.90
2018-12-25T14:47:09.790Z,6.90
2018-12-25T14:49:38.069Z,6.80
2018-12-25T14:52:05.512Z,6.80
2018-12-25T14:54:32.965Z,6.80
2018-12-25T14:57:00.945Z,6.70
2018-12-25T14:59:28.446Z,6.70
2018-12-25T15:01:55.967Z,6.60
2018-12-25T15:04:23.529Z,6.60
2018-12-25T15:06:51.019Z,6.60
2018-12-25T15:09:19.246Z,6.50
2018-12-25T15:11:46.718Z,6.50
2018-12-25T15:14:14.189Z,6.50
2018-12-25T15:16:41.757Z,6.40
2018-12-25T15:19:09.223Z,6.40
2018-12-25T15:21:36.678Z,6.20
2018-12-25T15:24:04.660Z,6.30
2018-12-25T15:26:32.133Z,6.20
2018-12-25T15:28:59.591Z,6.20
2018-12-25T15:31:27.819Z,6.20
2018-12-25T15:33:55.316Z,6.20
2018-12-25T15:36:22.775Z,6.10
2018-12-25T15:38:50.303Z,6.10
2018-12-25T15:41:17.768Z,6.20
2018-12-25T15:43:45.228Z,6.20
2018-12-25T15:46:12.767Z,6.10
2018-12-25T15:48:40.989Z,6.20
2018-12-25T15:51:08.585Z,6.20
2018-12-25T15:53:37.115Z,6.10
2018-12-25T15:56:04.491Z,6.20
2018-12-25T15:58:32.672Z,6.20
2018-12-25T16:01:00.144Z,6.20
2018-12-25T16:03:27.588Z,6.20
2018-12-25T16:05:55.074Z,6.30
2018-12-25T16:08:22.515Z,6.30
2018-12-25T16:10:50.031Z,6.30
2018-12-25T16:13:18.273Z,6.20
2018-12-25T16:15:45.758Z,6.10
2018-12-25T16:18:13.984Z,6.20
2018-12-25T16:20:42.286Z,6.20
2018-12-25T16:23:09.754Z,6.20
2018-12-25T16:25:37.219Z,6.10
2018-12-25T16:28:04.699Z,6.10
2018-12-25T16:30:32.262Z,6.10
2018-12-25T16:32:59.716Z,6.20
2018-12-25T16:35:27.281Z,6.10
2018-12-25T16:37:54.892Z,6.20
2018-12-25T16:40:22.417Z,6.20
2018-12-25T16:42:50.030Z,6.20
2018-12-25T16:45:17.468Z,6.20
2018-12-25T16:47:45.723Z,6.20
2018-12-25T16:50:13.189Z,6.20
2018-12-25T16:52:40.651Z,6.00
2018-12-25T16:55:08.120Z,6.10
2018-12-25T16:57:35.583Z,6.10
2018-12-25T17:00:04.778Z,6.10
2018-12-25T17:02:32.297Z,6.10
2018-12-25T17:04:59.759Z,6.10
2018-12-25T17:07:27.227Z,6.00
2018-12-25T17:09:54.685Z,6.00
2018-12-25T17:12:22.152Z,6.00
2018-12-25T17:14:49.596Z,6.00
2018-12-25T17:17:17.058Z,6.00
2018-12-25T17:19:44.527Z,6.00
2018-12-25T17:22:12.033Z,5.90
2018-12-25T17:24:39.603Z,6.00
2018-12-25T17:27:07.160Z,5.90
2018-12-25T17:29:34.629Z,5.80
2018-12-25T17:32:02.176Z,5.70
2018-12-25T17:34:29.646Z,5.80
2018-12-25T17:36:57.211Z,5.70
2018-12-25T17:39:24.767Z,5.70
2018-12-25T17:41:52.233Z,5.70
2018-12-25T17:44:21.211Z,5.70
2018-12-25T17:46:48.695Z,5.70
2018-12-25T17:49:16.162Z,5.70
2018-12-25T17:51:43.622Z,5.80
2018-12-25T17:54:11.160Z,5.70
2018-12-25T17:56:39.374Z,5.70
2018-12-25T17:59:06.935Z,5.70
2018-12-25T18:01:34.482Z,5.70
2018-12-25T18:04:02.057Z,5.60
2018-12-25T18:06:29.612Z,5.60
2018-12-25T18:08:57.086Z,5.60
2018-12-25T18:11:24.589Z,5.50
2018-12-25T18:13:52.869Z,5.60
2018-12-25T18:16:20.321Z,5.60
2018-12-25T18:18:47.895Z,5.60
2018-12-25T18:21:15.803Z,5.50
2018-12-25T18:23:43.263Z,5.50
2018-12-25T18:26:11.471Z,5.60
2018-12-25T18:28:39.717Z,5.50
2018-12-25T18:31:07.179Z,5.50
2018-12-25T18:33:34.674Z,5.50
2018-12-25T18:36:02.174Z,5.40
2018-12-25T18:38:29.645Z,5.40
2018-12-25T18:40:57.199Z,5.40
2018-12-25T18:43:24.723Z,5.50
2018-12-25T18:45:53.721Z,5.40
2018-12-25T18:48:21.194Z,5.40
2018-12-25T18:50:49.428Z,5.20
2018-12-25T18:53:16.901Z,5.20
2018-12-25T18:55:44.396Z,5.10
2018-12-25T18:58:12.660Z,5.00
2018-12-25T19:00:40.186Z,5.00
2018-12-25T19:03:07.645Z,5.00
2018-12-25T19:05:35.139Z,5.10
2018-12-25T19:08:02.868Z,5.10
2018-12-25T19:10:30.425Z,5.00
2018-12-25T19:12:57.980Z,5.10
2018-12-25T19:15:25.367Z,5.10
2018-12-25T19:17:52.855Z,5.10
2018-12-25T19:20:20.432Z,5.10
2018-12-25T19:22:47.895Z,5.10
2018-12-25T19:25:15.374Z,5.10
2018-12-25T19:27:43.656Z,5.10
2018-12-25T19:30:15.085Z,5.20
2018-12-25T19:32:43.853Z,5.10
2018-12-25T19:35:11.717Z,5.10
2018-12-25T19:37:39.990Z,5.10
2018-12-25T19:40:07.490Z,5.10
2018-12-25T19:42:35.006Z,5.10
2018-12-25T19:45:02.556Z,5.10
2018-12-25T19:47:30.028Z,5.10
2018-12-25T19:49:57.505Z,5.10
2018-12-25T19:52:24.962Z,5.10
2018-12-25T19:54:52.425Z,5.10
2018-12-25T19:57:19.909Z,5.00
2018-12-25T19:59:47.392Z,5.10
2018-12-25T20:02:14.862Z,5.10
2018-12-25T20:04:42.319Z,5.10
2018-12-25T20:10:17.785Z,5.10
2018-12-25T20:13:09.066Z,5.10
2018-12-25T20:15:51.954Z,5.00
2018-12-25T20:18:30.090Z,5.10
2018-12-25T20:23:53.604Z,5.00
2018-12-25T20:26:25.894Z,5.00
2018-12-25T20:29:00.237Z,4.90
2018-12-25T20:31:27.814Z,4.90
2018-12-25T20:34:16.146Z,5.00
2018-12-25T20:39:48.730Z,4.90
2018-12-25T20:42:36.863Z,5.00
2018-12-25T20:48:40.800Z,4.90
2018-12-25T20:51:26.594Z,4.90
2018-12-25T20:54:16.700Z,4.90
2018-12-25T20:56:52.875Z,4.90
2018-12-25T20:59:27.088Z,5.00
2018-12-25T21:02:03.289Z,4.90
2018-12-25T21:04:34.489Z,5.00
2018-12-25T21:07:07.465Z,5.00
2018-12-25T21:09:46.647Z,4.90
2018-12-25T21:12:22.610Z,4.90
2018-12-25T21:15:11.190Z,5.00
2018-12-25T21:17:47.560Z,4.90
2018-12-25T21:23:38.773Z,5.00
2018-12-25T21:26:29.160Z,4.90
2018-12-25T21:28:56.634Z,4.90
2018-12-25T21:31:24.197Z,4.90
2018-12-25T21:33:51.664Z,4.90
2018-12-25T21:36:19.122Z,4.90
2018-12-25T21:38:46.571Z,5.00
2018-12-25T21:41:14.739Z,4.90
2018-12-25T21:43:42.222Z,5.00
2018-12-25T21:46:09.782Z,5.00
2018-12-25T21:48:37.251Z,5.00
2018-12-25T21:51:04.810Z,5.00
2018-12-25T21:53:32.275Z,5.00
2018-12-25T21:55:59.740Z,5.00
2018-12-25T21:58:27.310Z,5.00
2018-12-25T22:00:54.870Z,5.10
2018-12-25T22:03:22.316Z,5.10
2018-12-25T22:05:49.773Z,5.00
2018-12-25T22:08:17.246Z,5.00
2018-12-25T22:10:44.718Z,5.00
2018-12-25T22:13:12.288Z,5.00
2018-12-25T22:15:39.748Z,5.10
2018-12-25T22:18:09.446Z,5.10
2018-12-25T22:20:34.782Z,5.00
2018-12-25T22:23:02.260Z,5.10
2018-12-25T22:25:30.548Z,5.10
2018-12-25T22:27:58.753Z,5.10
2018-12-25T22:30:26.212Z,5.10
2018-12-25T22:32:53.715Z,5.10
2018-12-25T22:35:21.186Z,5.10
2018-12-25T22:37:48.670Z,5.10
2018-12-25T22:40:16.922Z,5.10
2018-12-25T22:42:44.388Z,5.10
2018-12-25T22:45:11.876Z,5.10
2018-12-25T22:47:40.122Z,5.10
2018-12-25T22:50:07.602Z,5.10
2018-12-25T22:52:35.053Z,5.10
2018-12-25T22:55:02.637Z,5.10
2018-12-25T22:57:30.864Z,5.10
2018-12-25T22:59:58.580Z,5.10
2018-12-25T23:02:26.053Z,5.10
2018-12-25T23:04:54.277Z,5.10
2018-12-25T23:07:22.757Z,5.10
2018-12-25T23:09:50.260Z,5.10
2018-12-25T23:12:17.800Z,5.10
2018-12-25T23:14:45.371Z,5.10
2018-12-25T23:17:12.845Z,5.10
2018-12-25T23:19:41.830Z,5.10
2018-12-25T23:22:09.398Z,5.00
2018-12-25T23:24:36.871Z,5.10
2018-12-25T23:27:05.082Z,5.10
2018-12-25T23:29:32.604Z,5.00
2018-12-25T23:32:00.160Z,5.10
2018-12-25T23:34:27.726Z,5.10
2018-12-25T23:36:55.301Z,5.10
2018-12-25T23:39:24.270Z,5.00
2018-12-25T23:41:52.078Z,5.10
2018-12-25T23:44:19.570Z,5.10
2018-12-25T23:46:47.084Z,5.10
2018-12-25T23:49:14.545Z,5.10
2018-12-25T23:51:42.094Z,5.00
2018-12-25T23:54:09.569Z,5.00
2018-12-25T23:56:37.035Z,5.10
2018-12-25T23:59:05.321Z,5.00
